Time;durP1;ratioP1;P1;durP2;ratioP2;P2;SDS_P1;SDS_P2;PMS_P1;PMS_P2;Temp;Humidity;BMP_temperature;BMP_pressure;BME280_temperature;BME280_humidity;BME280_pressure;Samples;Min_cycle;Max_cycle;Signal;HPM_P1;HPM_P2
2023/01/22 00:00:14;;;;;;;39.50;24.80;;;6.40;99.90;;;;;;5095975;28;20489;-86
2023/01/22 00:02:40;;;;;;;37.78;24.15;;;6.40;99.90;;;;;;5098320;28;20235;-83
2023/01/22 00:05:07;;;;;;;36.83;25.10;;;6.30;99.90;;;;;;5092678;28;20208;-86
2023/01/22 00:07:32;;;;;;;45.38;25.02;;;6.40;99.90;;;;;;5094016;28;20192;-89
2023/01/22 00:10:01;;;;;;;40.37;24.00;;;6.30;99.90;;;;;;5094106;28;20180;-83
2023/01/22 00:12:27;;;;;;;35.97;22.00;;;6.30;99.90;;;;;;5093887;28;20193;-83
2023/01/22 00:14:52;;;;;;;32.40;20.17;;;6.30;99.90;;;;;;5092937;28;20678;-88
2023/01/22 00:17:18;;;;;;;34.20;20.73;;;6.40;99.90;;;;;;5093714;28;20220;-83
2023/01/22 00:19:43;;;;;;;30.23;21.10;;;6.30;99.90;;;;;;5093882;28;20252;-82
2023/01/22 00:22:11;;;;;;;31.83;21.60;;;6.40;99.90;;;;;;5092765;28;20216;-82
2023/01/22 00:24:38;;;;;;;34.15;21.70;;;6.30;99.90;;;;;;5092904;28;20188;-88
2023/01/22 00:27:04;;;;;;;34.08;21.98;;;6.30;99.90;;;;;;5095929;28;20184;-88
2023/01/22 00:29:30;;;;;;;30.43;21.10;;;6.30;99.90;;;;;;5096644;28;20172;-89
2023/01/22 00:31:55;;;;;;;35.40;22.37;;;6.30;99.90;;;;;;5097913;28;20551;-89
2023/01/22 00:34:21;;;;;;;37.33;23.00;;;6.30;99.90;;;;;;5096876;28;20211;-82
2023/01/22 00:36:47;;;;;;;29.67;19.20;;;6.30;99.90;;;;;;5098078;28;20176;-84
2023/01/22 00:39:12;;;;;;;35.43;20.90;;;6.40;99.90;;;;;;5099350;28;20181;-84
2023/01/22 00:41:38;;;;;;;36.90;22.87;;;6.40;99.90;;;;;;5099513;28;20177;-82
2023/01/22 00:44:04;;;;;;;32.97;19.88;;;6.30;99.90;;;;;;5100633;28;20451;-88
2023/01/22 00:46:31;;;;;;;32.27;21.30;;;6.40;99.90;;;;;;5096924;28;20177;-86
2023/01/22 00:48:57;;;;;;;30.30;19.33;;;6.40;99.90;;;;;;5097399;28;20555;-82
2023/01/22 00:51:22;;;;;;;34.63;20.40;;;6.40;99.90;;;;;;5096175;28;20219;-87
2023/01/22 00:53:48;;;;;;;35.93;21.40;;;6.40;99.90;;;;;;5096486;28;20261;-88
2023/01/22 00:56:14;;;;;;;31.17;19.33;;;6.40;99.90;;;;;;5096086;28;20327;-88
2023/01/22 00:58:39;;;;;;;36.20;22.80;;;6.40;99.90;;;;;;5096330;28;20611;-88
2023/01/22 01:01:06;;;;;;;37.80;24.50;;;6.30;99.90;;;;;;5097555;28;20165;-88
2023/01/22 01:03:33;;;;;;;39.35;23.75;;;6.30;99.90;;;;;;5097368;28;20681;-89
2023/01/22 01:06:01;;;;;;;35.50;22.08;;;6.30;99.90;;;;;;5096493;28;20203;-83
2023/01/22 01:08:29;;;;;;;34.55;24.60;;;6.30;99.90;;;;;;5096155;28;20207;-83
2023/01/22 01:10:57;;;;;;;37.28;22.05;;;6.40;99.90;;;;;;5096350;28;20762;-82
2023/01/22 01:13:23;;;;;;;43.38;25.05;;;6.30;99.90;;;;;;5105915;28;20204;-83
2023/01/22 01:15:48;;;;;;;37.33;23.33;;;6.40;99.90;;;;;;5101069;28;20176;-88
2023/01/22 01:18:15;;;;;;;42.67;25.33;;;6.40;99.90;;;;;;5096677;28;20527;-84
2023/01/22 01:20:41;;;;;;;34.53;22.42;;;6.40;99.90;;;;;;5096942;28;20702;-88
2023/01/22 01:23:07;;;;;;;36.97;21.40;;;6.40;99.90;;;;;;5097213;28;20283;-89
2023/01/22 01:25:33;;;;;;;30.83;21.40;;;6.40;99.90;;;;;;5095775;28;20267;-87
2023/01/22 01:27:59;;;;;;;33.50;21.07;;;6.40;99.90;;;;;;5096958;28;20188;-87
2023/01/22 01:30:25;;;;;;;37.55;23.15;;;6.40;99.90;;;;;;5096555;28;20243;-88
2023/01/22 01:32:50;;;;;;;34.43;21.57;;;6.40;99.90;;;;;;5095711;28;20285;-89
2023/01/22 01:35:18;;;;;;;34.67;20.90;;;6.40;99.90;;;;;;5096951;28;20401;-83
2023/01/22 01:37:44;;;;;;;31.67;20.63;;;6.40;99.90;;;;;;5094518;28;20626;-87
2023/01/22 01:40:10;;;;;;;31.57;21.17;;;6.40;99.90;;;;;;5096647;28;20210;-82
2023/01/22 01:42:40;;;;;;;36.38;21.65;;;6.40;99.90;;;;;;5097741;28;20196;-83
2023/01/22 01:45:28;;;;;;;32.20;21.02;;;6.40;99.90;;;;;;5100778;28;20165;-83
2023/01/22 01:48:09;;;;;;;35.58;23.05;;;6.40;99.90;;;;;;5095490;28;20289;-89
2023/01/22 01:50:39;;;;;;;40.67;25.15;;;6.40;99.90;;;;;;5096611;28;20192;-89
2023/01/22 01:53:05;;;;;;;41.03;24.08;;;6.40;99.90;;;;;;5096451;28;20196;-83
2023/01/22 01:55:34;;;;;;;37.30;23.58;;;6.40;99.90;;;;;;5096099;28;20216;-83
2023/01/22 01:58:11;;;;;;;36.78;23.40;;;6.40;99.90;;;;;;5095119;28;20285;-83
2023/01/22 02:00:38;;;;;;;35.40;23.52;;;6.40;99.90;;;;;;5096297;28;20213;-89
2023/01/22 02:03:04;;;;;;;31.88;21.20;;;6.30;99.90;;;;;;5094783;28;20220;-89
2023/01/22 02:05:36;;;;;;;33.97;22.70;;;6.30;99.90;;;;;;5094926;28;20181;-89
2023/01/22 02:08:02;;;;;;;37.75;23.40;;;6.30;99.90;;;;;;5094849;28;20464;-89
2023/01/22 02:10:28;;;;;;;37.50;24.85;;;6.30;99.90;;;;;;5096168;28;20221;-89
2023/01/22 02:12:58;;;;;;;30.10;22.40;;;6.30;99.90;;;;;;5096178;28;20184;-88
2023/01/22 02:15:23;;;;;;;40.53;22.77;;;6.30;99.90;;;;;;5096114;28;20427;-83
2023/01/22 02:17:49;;;;;;;33.80;22.93;;;6.30;99.90;;;;;;5103320;28;20185;-83
2023/01/22 02:20:15;;;;;;;31.83;20.97;;;6.30;99.90;;;;;;5095017;28;20424;-88
2023/01/22 02:22:41;;;;;;;35.57;22.50;;;6.30;99.90;;;;;;5095608;28;20517;-83
2023/01/22 02:25:07;;;;;;;40.97;25.57;;;6.30;99.90;;;;;;5095874;28;20915;-82
2023/01/22 02:27:33;;;;;;;37.00;23.98;;;6.20;99.90;;;;;;5094402;28;21550;-83
2023/01/22 02:29:59;;;;;;;39.17;24.00;;;6.20;99.90;;;;;;5094712;28;20192;-87
2023/01/22 02:32:24;;;;;;;36.57;23.40;;;6.20;99.90;;;;;;5095603;28;20640;-89
2023/01/22 02:34:50;;;;;;;37.57;22.40;;;6.20;99.90;;;;;;5095705;28;20225;-85
2023/01/22 02:37:16;;;;;;;38.57;24.03;;;6.20;99.90;;;;;;5094079;28;20596;-83
2023/01/22 02:39:42;;;;;;;35.97;24.90;;;6.20;99.90;;;;;;5094370;28;20184;-89
2023/01/22 02:42:08;;;;;;;42.33;27.60;;;6.10;99.90;;;;;;5095295;28;20417;-82
2023/01/22 02:44:33;;;;;;;40.00;23.57;;;6.10;99.90;;;;;;5095867;28;20180;-83
2023/01/22 02:46:59;;;;;;;38.77;23.90;;;6.20;99.90;;;;;;5094132;28;20516;-84
2023/01/22 02:49:25;;;;;;;42.15;27.10;;;6.10;99.90;;;;;;5099649;28;20173;-90
2023/01/22 02:51:51;;;;;;;37.23;23.73;;;6.10;99.90;;;;;;5094375;28;20223;-89
2023/01/22 02:54:17;;;;;;;39.93;23.03;;;6.20;99.90;;;;;;5094150;28;20429;-83
2023/01/22 02:56:43;;;;;;;40.63;25.37;;;6.20;99.90;;;;;;5093596;28;20595;-89
2023/01/22 02:59:09;;;;;;;32.27;20.77;;;6.10;99.90;;;;;;5095436;28;20444;-83
2023/01/22 03:01:35;;;;;;;39.67;21.80;;;6.20;99.90;;;;;;5095046;28;20779;-89
2023/01/22 03:04:10;;;;;;;32.27;20.77;;;6.20;99.90;;;;;;5095284;28;20197;-82
2023/01/22 03:06:41;;;;;;;32.60;19.98;;;6.20;99.90;;;;;;5093679;28;20328;-82
2023/01/22 03:09:07;;;;;;;35.45;20.45;;;6.20;99.90;;;;;;5093956;28;20196;-83
2023/01/22 03:11:35;;;;;;;35.20;22.10;;;6.20;99.90;;;;;;5094856;28;20204;-88
2023/01/22 03:22:15;;;;;;;32.42;21.13;;;6.10;99.90;;;;;;5094670;28;20199;-82
2023/01/22 03:24:42;;;;;;;31.60;21.38;;;6.10;99.90;;;;;;5093631;28;20176;-89
2023/01/22 03:27:08;;;;;;;33.33;21.60;;;6.10;99.90;;;;;;5093506;28;20199;-89
2023/01/22 03:29:37;;;;;;;35.90;23.67;;;6.10;99.90;;;;;;5093791;28;20267;-82
2023/01/22 03:32:06;;;;;;;31.73;22.33;;;6.00;99.90;;;;;;5093332;28;20487;-83
2023/01/22 03:34:31;;;;;;;37.13;24.65;;;6.00;99.90;;;;;;5100295;28;20181;-89
2023/01/22 03:36:57;;;;;;;38.03;24.40;;;6.10;99.90;;;;;;5096635;28;20177;-85
2023/01/22 03:39:25;;;;;;;39.00;24.23;;;6.10;99.90;;;;;;5093317;28;20180;-83
2023/01/22 03:41:51;;;;;;;33.63;21.60;;;6.10;99.90;;;;;;5094536;28;20179;-89
2023/01/22 03:44:17;;;;;;;33.40;21.60;;;6.10;99.90;;;;;;5095013;28;20621;-89
2023/01/22 03:46:43;;;;;;;35.63;21.30;;;6.20;99.90;;;;;;5092990;28;20271;-88
2023/01/22 03:49:11;;;;;;;29.37;18.70;;;6.20;99.90;;;;;;5094627;28;20472;-83
2023/01/22 03:51:36;;;;;;;34.70;23.67;;;6.10;99.90;;;;;;5094227;28;20215;-90
2023/01/22 03:54:02;;;;;;;35.80;22.37;;;6.00;99.90;;;;;;5093083;28;20200;-89
2023/01/22 03:56:28;;;;;;;29.13;19.27;;;6.00;99.90;;;;;;5093888;28;20251;-89
2023/01/22 03:58:55;;;;;;;34.17;22.83;;;6.00;99.90;;;;;;5094627;28;20424;-83
2023/01/22 04:01:23;;;;;;;36.80;24.23;;;6.00;99.90;;;;;;5093944;28;20168;-89
2023/01/22 04:03:50;;;;;;;30.83;20.08;;;6.00;99.90;;;;;;5093096;28;20204;-85
2023/01/22 04:06:17;;;;;;;36.88;21.15;;;6.00;99.90;;;;;;5094371;28;20182;-90
2023/01/22 04:08:45;;;;;;;34.80;20.33;;;6.00;99.90;;;;;;5093202;28;20730;-83
2023/01/22 04:11:11;;;;;;;29.05;19.48;;;6.00;99.90;;;;;;5093111;28;20258;-88
2023/01/22 04:13:39;;;;;;;30.55;17.90;;;6.10;99.90;;;;;;5094294;28;20645;-83
2023/01/22 04:16:05;;;;;;;34.25;20.17;;;6.10;99.90;;;;;;5094201;28;20204;-83
2023/01/22 04:18:31;;;;;;;31.33;19.38;;;6.10;99.90;;;;;;5093892;28;20200;-89
2023/01/22 04:20:57;;;;;;;24.67;17.30;;;6.10;99.90;;;;;;5094121;28;20557;-81
2023/01/22 04:23:23;;;;;;;32.50;18.87;;;6.10;99.90;;;;;;5094122;28;20197;-89
2023/01/22 04:25:49;;;;;;;32.13;20.02;;;6.10;99.90;;;;;;5099391;28;20405;-88
2023/01/22 04:28:16;;;;;;;33.88;21.05;;;6.00;99.90;;;;;;5094038;28;20554;-88
2023/01/22 04:30:43;;;;;;;30.60;20.30;;;6.00;99.90;;;;;;5093597;28;20218;-81
2023/01/22 04:33:10;;;;;;;32.63;20.40;;;6.00;99.90;;;;;;5092596;28;20570;-84
2023/01/22 04:35:36;;;;;;;25.75;18.70;;;5.90;99.90;;;;;;5092546;28;20173;-88
2023/01/22 04:38:03;;;;;;;30.48;20.17;;;6.00;99.90;;;;;;5092693;28;20212;-89
2023/01/22 04:40:29;;;;;;;35.00;20.60;;;6.00;99.90;;;;;;5093764;28;20172;-83
2023/01/22 04:42:58;;;;;;;30.80;18.50;;;6.00;99.90;;;;;;5093743;28;20195;-89
2023/01/22 04:45:24;;;;;;;29.08;17.63;;;6.00;99.90;;;;;;5093738;28;20496;-82
2023/01/22 04:47:50;;;;;;;33.67;20.70;;;6.00;99.90;;;;;;5093945;28;20279;-88
2023/01/22 04:50:28;;;;;;;25.77;17.87;;;5.90;99.90;;;;;;5092528;28;20819;-83
2023/01/22 04:52:54;;;;;;;28.90;18.52;;;5.90;99.90;;;;;;5093694;28;20750;-88
2023/01/22 04:55:20;;;;;;;25.50;17.83;;;5.90;99.90;;;;;;5092015;28;20279;-83
2023/01/22 04:57:46;;;;;;;29.02;20.05;;;5.90;99.90;;;;;;5092587;28;20603;-83
2023/01/22 05:00:12;;;;;;;30.10;18.80;;;5.80;99.90;;;;;;5093715;28;20177;-88
2023/01/22 05:02:38;;;;;;;27.88;18.08;;;5.80;99.90;;;;;;5092181;28;20192;-83
2023/01/22 05:05:06;;;;;;;29.60;19.10;;;5.80;99.90;;;;;;5097419;28;20244;-83
2023/01/22 05:07:32;;;;;;;30.98;19.67;;;5.90;99.90;;;;;;5092589;28;20472;-89
2023/01/22 05:09:58;;;;;;;30.13;19.17;;;5.90;99.90;;;;;;5092434;28;20199;-87
2023/01/22 05:12:24;;;;;;;28.00;18.80;;;5.90;99.90;;;;;;5092469;28;20255;-86
2023/01/22 05:14:50;;;;;;;27.50;17.85;;;5.80;99.90;;;;;;5096931;28;20183;-88
2023/01/22 05:17:15;;;;;;;26.10;18.50;;;5.90;99.90;;;;;;5097225;28;20196;-89
2023/01/22 05:19:41;;;;;;;30.85;19.67;;;5.90;99.90;;;;;;5095849;28;20629;-88
2023/01/22 05:22:07;;;;;;;29.37;20.33;;;5.80;99.90;;;;;;5096869;28;20202;-83
2023/01/22 05:24:33;;;;;;;30.53;19.00;;;5.80;99.90;;;;;;5096012;28;20522;-83
2023/01/22 05:26:58;;;;;;;26.23;19.20;;;5.80;99.90;;;;;;5095676;28;20180;-83
2023/01/22 05:29:25;;;;;;;26.53;17.73;;;5.80;99.90;;;;;;5096101;28;20180;-90
2023/01/22 05:31:56;;;;;;;28.92;19.10;;;5.80;99.90;;;;;;5095725;28;20479;-83
2023/01/22 05:34:22;;;;;;;28.60;19.00;;;5.80;99.90;;;;;;5095944;28;20182;-89
2023/01/22 05:36:48;;;;;;;27.35;17.38;;;5.80;99.90;;;;;;5096890;28;20188;-83
2023/01/22 05:39:15;;;;;;;29.53;18.43;;;5.80;99.90;;;;;;5095797;28;20539;-86
2023/01/22 05:41:41;;;;;;;25.88;17.85;;;5.90;99.90;;;;;;5096746;28;20179;-89
2023/01/22 05:44:10;;;;;;;24.60;16.50;;;5.90;99.90;;;;;;5097109;28;20697;-89
2023/01/22 05:46:35;;;;;;;29.42;19.10;;;5.90;99.90;;;;;;5095375;28;20413;-82
2023/01/22 05:49:01;;;;;;;28.33;17.70;;;5.90;99.90;;;;;;5095856;28;20604;-89
2023/01/22 05:51:27;;;;;;;28.17;17.73;;;5.80;99.90;;;;;;5098395;28;20216;-81
2023/01/22 05:53:52;;;;;;;26.73;17.97;;;5.90;99.90;;;;;;5096062;28;20287;-89
2023/01/22 05:56:18;;;;;;;26.87;16.23;;;5.90;99.90;;;;;;5096144;28;20243;-82
2023/01/22 05:58:44;;;;;;;25.60;16.50;;;5.90;99.90;;;;;;5096469;28;20325;-82
2023/01/22 06:01:10;;;;;;;25.23;16.73;;;5.90;99.90;;;;;;5096205;28;20172;-82
2023/01/22 06:03:36;;;;;;;31.63;19.27;;;5.90;99.90;;;;;;5096099;28;20737;-82
2023/01/22 06:06:07;;;;;;;28.77;18.63;;;5.80;99.90;;;;;;5096235;28;20212;-83
2023/01/22 06:08:33;;;;;;;30.00;19.08;;;5.80;99.90;;;;;;5094655;28;20196;-83
2023/01/22 06:11:10;;;;;;;28.10;19.07;;;5.80;99.90;;;;;;5096106;28;20696;-81
2023/01/22 06:13:36;;;;;;;30.30;19.50;;;5.80;99.90;;;;;;5094879;28;20479;-81
2023/01/22 06:16:03;;;;;;;28.42;18.58;;;5.80;99.90;;;;;;5094724;28;20176;-83
2023/01/22 06:18:29;;;;;;;26.08;17.73;;;5.80;99.90;;;;;;5095798;28;20197;-88
2023/01/22 06:20:59;;;;;;;26.67;17.00;;;5.80;99.90;;;;;;5096005;28;20200;-88
2023/01/22 06:23:26;;;;;;;25.95;17.98;;;5.80;99.90;;;;;;5094061;28;20612;-83
2023/01/22 06:25:53;;;;;;;29.95;18.45;;;5.80;99.90;;;;;;5095906;28;20173;-81
2023/01/22 06:28:19;;;;;;;28.90;17.83;;;5.70;99.90;;;;;;5094452;28;20232;-83
2023/01/22 06:30:45;;;;;;;29.63;18.20;;;5.60;99.90;;;;;;5096408;28;20717;-82
2023/01/22 06:33:10;;;;;;;26.33;17.77;;;5.60;99.90;;;;;;5097170;28;20953;-88
2023/01/22 06:35:36;;;;;;;26.87;18.13;;;5.50;99.90;;;;;;5096223;28;20210;-85
2023/01/22 06:38:02;;;;;;;28.10;17.60;;;5.50;99.90;;;;;;5097888;28;20641;-83
2023/01/22 06:40:27;;;;;;;26.00;18.27;;;5.50;99.90;;;;;;5094236;28;20272;-86
2023/01/22 06:42:53;;;;;;;26.60;17.13;;;5.50;99.90;;;;;;5095367;28;20432;-83
2023/01/22 06:45:19;;;;;;;33.40;20.33;;;5.50;99.90;;;;;;5095471;28;20187;-87
2023/01/22 06:47:45;;;;;;;27.37;18.87;;;5.60;99.90;;;;;;5095487;28;20188;-83
2023/01/22 06:50:12;;;;;;;25.67;17.70;;;5.60;99.90;;;;;;5094021;28;20192;-82
2023/01/22 06:52:38;;;;;;;29.15;19.85;;;5.60;99.90;;;;;;5093730;28;20241;-88
2023/01/22 06:55:04;;;;;;;28.33;18.55;;;5.50;99.90;;;;;;5095094;28;20180;-82
2023/01/22 06:57:30;;;;;;;30.02;19.23;;;5.50;99.90;;;;;;5094656;28;20572;-83
2023/01/22 06:59:56;;;;;;;31.40;20.10;;;5.50;99.90;;;;;;5095069;28;20222;-84
2023/01/22 07:02:22;;;;;;;29.33;18.93;;;5.50;99.90;;;;;;5093791;28;20648;-88
2023/01/22 07:04:47;;;;;;;30.03;20.10;;;5.60;99.90;;;;;;5095076;28;20181;-82
2023/01/22 07:07:13;;;;;;;33.67;20.43;;;5.60;99.90;;;;;;5093620;28;20189;-86
2023/01/22 07:09:39;;;;;;;26.85;19.20;;;5.70;99.90;;;;;;5093554;28;20602;-87
2023/01/22 07:12:05;;;;;;;30.33;18.90;;;5.70;99.90;;;;;;5094599;28;20211;-88
2023/01/22 07:14:31;;;;;;;62.43;36.87;;;5.70;99.90;;;;;;5096265;28;20172;-83
2023/01/22 07:16:56;;;;;;;66.73;38.93;;;5.70;99.90;;;;;;5095656;28;20483;-82
2023/01/22 07:19:22;;;;;;;48.27;30.57;;;5.70;99.90;;;;;;5095374;28;20510;-88
2023/01/22 07:21:48;;;;;;;42.83;27.00;;;5.60;99.90;;;;;;5094713;28;20653;-88
2023/01/22 07:24:14;;;;;;;34.93;22.70;;;5.70;99.90;;;;;;5098915;28;20168;-82
2023/01/22 07:26:41;;;;;;;42.22;27.00;;;5.70;99.90;;;;;;5112020;28;20418;-82
2023/01/22 07:29:07;;;;;;;45.08;28.15;;;5.80;99.90;;;;;;5113343;28;20610;-88
2023/01/22 07:31:32;;;;;;;44.57;30.27;;;5.80;99.90;;;;;;5113265;28;20248;-83
2023/01/22 07:33:58;;;;;;;42.97;29.03;;;5.80;99.90;;;;;;5114955;28;20196;-82
2023/01/22 07:36:23;;;;;;;39.53;26.60;;;5.80;99.90;;;;;;5112583;28;20180;-82
2023/01/22 07:38:49;;;;;;;31.80;21.90;;;5.80;99.90;;;;;;5112864;28;20213;-86
2023/01/22 07:41:15;;;;;;;38.90;23.53;;;5.80;99.90;;;;;;5112628;28;20178;-86
2023/01/22 07:43:40;;;;;;;35.97;21.70;;;5.90;99.90;;;;;;5111109;28;20709;-82
2023/01/22 07:46:07;;;;;;;30.80;22.03;;;5.90;99.90;;;;;;5112454;28;20176;-81
2023/01/22 07:48:33;;;;;;;34.40;21.92;;;6.00;99.90;;;;;;5112733;28;20640;-88
2023/01/22 07:51:04;;;;;;;35.20;23.85;;;5.90;99.90;;;;;;5112450;28;20219;-87
2023/01/22 07:53:31;;;;;;;41.85;26.98;;;6.00;99.90;;;;;;5111904;28;20184;-88
2023/01/22 07:55:57;;;;;;;38.50;25.02;;;5.90;99.90;;;;;;5113115;28;20767;-88
2023/01/22 07:58:23;;;;;;;46.67;27.77;;;5.90;99.90;;;;;;5115846;28;20290;-82
2023/01/22 08:00:49;;;;;;;41.23;27.13;;;5.90;99.90;;;;;;5118773;28;20586;-82
2023/01/22 08:03:15;;;;;;;43.17;26.40;;;5.90;99.90;;;;;;5117768;28;20970;-90
2023/01/22 08:05:42;;;;;;;40.70;28.05;;;6.00;99.90;;;;;;5113890;28;20269;-87
2023/01/22 08:08:16;;;;;;;47.72;29.38;;;6.00;99.90;;;;;;5112927;28;20228;-89
2023/01/22 08:10:42;;;;;;;36.33;25.70;;;6.00;99.90;;;;;;5114193;28;20206;-88
2023/01/22 08:13:08;;;;;;;39.50;27.45;;;6.10;99.90;;;;;;5114451;28;20284;-88
2023/01/22 08:15:34;;;;;;;36.20;25.80;;;6.20;99.90;;;;;;5113186;28;20241;-87
2023/01/22 08:17:59;;;;;;;35.77;23.50;;;6.20;99.90;;;;;;5114469;28;20199;-83
2023/01/22 08:20:25;;;;;;;35.27;24.00;;;6.30;99.90;;;;;;5112956;28;20184;-87
2023/01/22 08:22:59;;;;;;;34.57;24.60;;;6.30;99.90;;;;;;5114201;28;20206;-83
2023/01/22 08:25:26;;;;;;;31.90;20.88;;;6.40;99.90;;;;;;5112888;28;20416;-82
2023/01/22 08:27:52;;;;;;;31.95;23.60;;;6.50;99.90;;;;;;5113014;28;20195;-83
2023/01/22 08:30:18;;;;;;;33.72;23.05;;;6.50;99.90;;;;;;5114075;28;20183;-86
2023/01/22 08:32:44;;;;;;;37.53;25.07;;;6.50;99.90;;;;;;5114153;28;20202;-84
2023/01/22 08:35:11;;;;;;;36.63;25.50;;;6.60;99.90;;;;;;5114257;28;20203;-87
2023/01/22 08:37:36;;;;;;;34.13;22.75;;;6.90;99.90;;;;;;5112775;28;20199;-82
2023/01/22 08:40:07;;;;;;;36.20;22.80;;;7.60;99.90;;;;;;5114236;28;20660;-84
2023/01/22 08:42:33;;;;;;;43.35;24.95;;;8.20;99.90;;;;;;5114271;28;20204;-83
2023/01/22 08:44:59;;;;;;;45.30;26.67;;;8.40;99.90;;;;;;5115492;28;20183;-87
2023/01/22 08:47:24;;;;;;;32.23;22.20;;;8.30;99.90;;;;;;5123457;28;20206;-83
2023/01/22 08:49:50;;;;;;;40.20;23.13;;;8.30;99.90;;;;;;5118130;27;20399;-83
2023/01/22 08:52:16;;;;;;;32.00;22.27;;;8.20;99.90;;;;;;5117622;28;20239;-88
2023/01/22 08:54:42;;;;;;;28.53;21.13;;;8.20;99.90;;;;;;5116566;28;20578;-86
2023/01/22 08:57:07;;;;;;;30.10;22.33;;;8.20;99.90;;;;;;5117831;28;20310;-84
2023/01/22 08:59:33;;;;;;;29.77;20.60;;;8.10;99.90;;;;;;5118209;28;20398;-88
2023/01/22 09:01:59;;;;;;;29.67;20.27;;;8.10;99.90;;;;;;5117963;28;20182;-89
2023/01/22 09:04:26;;;;;;;30.08;19.90;;;7.90;99.90;;;;;;5116887;28;20176;-89
2023/01/22 09:06:52;;;;;;;32.03;21.92;;;7.70;99.90;;;;;;5116432;28;20187;-89
2023/01/22 09:09:17;;;;;;;31.83;21.83;;;7.60;99.90;;;;;;5118256;28;20168;-82
2023/01/22 09:11:45;;;;;;;30.30;21.90;;;7.50;99.90;;;;;;5117529;28;20464;-87
2023/01/22 09:14:11;;;;;;;36.50;24.92;;;7.40;99.90;;;;;;5118551;27;20198;-82
2023/01/22 09:16:37;;;;;;;32.00;23.42;;;7.50;99.90;;;;;;5116884;28;20176;-89
2023/01/22 09:19:04;;;;;;;33.53;23.57;;;7.40;99.90;;;;;;5124588;28;20206;-89
2023/01/22 09:21:32;;;;;;;35.67;25.27;;;7.40;99.90;;;;;;5122370;28;20412;-82
2023/01/22 09:23:57;;;;;;;34.13;24.65;;;7.40;99.90;;;;;;5118057;28;20262;-89
2023/01/22 09:26:23;;;;;;;36.03;25.27;;;7.40;99.90;;;;;;5117510;28;20172;-82
2023/01/22 09:28:49;;;;;;;39.77;25.13;;;7.40;99.90;;;;;;5117606;28;20432;-89
2023/01/22 09:31:15;;;;;;;38.10;25.40;;;7.40;99.90;;;;;;5117339;28;20212;-86
2023/01/22 09:33:41;;;;;;;38.65;24.98;;;7.30;99.90;;;;;;5116123;28;20729;-89
2023/01/22 09:36:12;;;;;;;37.93;25.37;;;7.40;99.90;;;;;;5117400;28;20176;-87
2023/01/22 09:38:38;;;;;;;42.10;27.63;;;7.40;99.90;;;;;;5116867;28;20529;-83
2023/01/22 09:41:18;;;;;;;43.15;27.63;;;7.40;99.90;;;;;;5115834;28;20184;-88
2023/01/22 09:43:49;;;;;;;38.65;25.83;;;7.50;99.90;;;;;;5116076;28;20659;-90
2023/01/22 09:46:27;;;;;;;42.00;28.77;;;7.60;99.90;;;;;;5115847;28;20176;-90
2023/01/22 09:48:59;;;;;;;40.65;25.98;;;7.60;99.90;;;;;;5117393;28;20191;-83
2023/01/22 09:51:25;;;;;;;43.90;26.77;;;7.60;99.90;;;;;;5116929;27;20218;-89
2023/01/22 09:53:58;;;;;;;35.72;24.80;;;7.60;99.90;;;;;;5115893;28;20282;-88
2023/01/22 09:56:45;;;;;;;36.45;25.65;;;7.90;99.90;;;;;;5121796;27;20579;-89
2023/01/22 09:59:21;;;;;;;32.72;22.10;;;8.50;99.90;;;;;;5114966;28;20203;-89
2023/01/22 10:01:55;;;;;;;35.17;24.30;;;8.50;99.90;;;;;;5116638;28;20251;-84
2023/01/22 10:04:44;;;;;;;34.38;24.02;;;8.50;99.90;;;;;;5115753;28;20184;-90
2023/01/22 10:07:29;;;;;;;36.33;24.40;;;8.50;99.90;;;;;;5113603;28;20567;-83
2023/01/22 10:10:02;;;;;;;39.42;27.10;;;8.40;99.90;;;;;;5114895;28;20160;-89
2023/01/22 10:12:28;;;;;;;36.08;25.02;;;8.50;99.90;;;;;;5115100;28;20222;-84
2023/01/22 10:14:55;;;;;;;36.40;24.13;;;8.80;99.90;;;;;;5115254;28;20183;-82
2023/01/22 10:17:29;;;;;;;38.65;26.25;;;9.00;99.90;;;;;;5116325;27;20188;-84
2023/01/22 10:20:03;;;;;;;35.45;25.10;;;9.00;99.90;;;;;;5114376;28;20644;-83
2023/01/22 10:22:28;;;;;;;38.60;27.13;;;8.80;99.90;;;;;;5112919;28;20208;-83
2023/01/22 10:24:55;;;;;;;38.70;27.53;;;8.80;99.90;;;;;;5114392;28;20186;-82
2023/01/22 10:27:31;;;;;;;39.33;28.08;;;8.70;99.90;;;;;;5113152;28;20191;-90
2023/01/22 10:30:02;;;;;;;40.75;26.92;;;8.60;99.90;;;;;;5114334;28;20633;-82
2023/01/22 10:32:30;;;;;;;43.95;30.23;;;8.50;99.90;;;;;;5114852;28;20215;-90
2023/01/22 10:35:05;;;;;;;47.38;29.42;;;8.50;99.90;;;;;;5121271;28;20678;-88
2023/01/22 10:37:43;;;;;;;23.95;14.90;;;8.40;99.90;;;;;;5124854;28;20207;-83
2023/01/22 10:40:42;;;;;;;39.65;26.10;;;8.20;99.90;;;;;;5117701;28;20182;-89
2023/01/22 10:43:15;;;;;;;35.20;23.42;;;8.00;99.90;;;;;;5115468;28;20569;-83
2023/01/22 10:46:03;;;;;;;36.40;24.67;;;8.00;99.90;;;;;;5114622;28;20183;-82
2023/01/22 10:48:29;;;;;;;40.60;25.17;;;7.90;99.90;;;;;;5114443;28;20657;-89
2023/01/22 10:51:19;;;;;;;36.10;22.47;;;7.70;99.90;;;;;;5115564;28;20229;-83
2023/01/22 10:53:51;;;;;;;37.42;25.90;;;7.70;99.90;;;;;;5116036;28;20479;-84
2023/01/22 10:56:37;;;;;;;45.28;28.65;;;7.80;99.90;;;;;;5115500;28;20223;-83
2023/01/22 10:59:18;;;;;;;34.72;21.55;;;7.90;99.90;;;;;;5116047;28;20598;-83
2023/01/22 11:01:46;;;;;;;39.35;24.10;;;8.00;99.90;;;;;;5114343;28;20175;-82
2023/01/22 11:04:23;;;;;;;35.72;21.00;;;8.10;99.90;;;;;;5114237;28;20179;-83
2023/01/22 11:07:15;;;;;;;37.40;24.10;;;8.10;99.90;;;;;;5114163;28;20176;-89
2023/01/22 11:10:01;;;;;;;45.10;29.65;;;7.90;99.90;;;;;;5109337;28;20196;-84
2023/01/22 11:12:34;;;;;;;36.30;24.58;;;7.90;99.90;;;;;;5115070;28;20675;-89
2023/01/22 11:15:39;;;;;;;38.55;25.33;;;7.90;99.90;;;;;;5115467;28;20506;-89
2023/01/22 11:18:06;;;;;;;37.63;25.15;;;8.00;99.90;;;;;;5115327;28;20195;-83
2023/01/22 11:20:52;;;;;;;42.42;27.17;;;8.00;99.90;;;;;;5115278;28;20187;-82
2023/01/22 11:23:42;;;;;;;48.47;27.85;;;8.00;99.90;;;;;;5115166;28;20240;-82
2023/01/22 11:26:22;;;;;;;49.38;31.20;;;8.10;99.90;;;;;;5115155;28;20179;-82
2023/01/22 11:29:25;;;;;;;53.40;34.85;;;7.90;99.90;;;;;;5114948;28;20255;-89
2023/01/22 11:32:07;;;;;;;52.10;32.45;;;7.80;99.90;;;;;;5113766;28;20215;-89
2023/01/22 11:34:56;;;;;;;50.28;34.15;;;7.90;99.90;;;;;;5114104;28;20653;-83
2023/01/22 11:37:34;;;;;;;44.15;27.00;;;7.90;99.90;;;;;;5115134;28;20192;-84
2023/01/22 11:40:06;;;;;;;47.90;28.95;;;7.90;99.90;;;;;;5114265;28;20631;-89
2023/01/22 11:42:52;;;;;;;45.45;25.60;;;7.80;99.90;;;;;;5113554;28;20561;-83
2023/01/22 11:45:49;;;;;;;54.72;30.20;;;7.70;99.90;;;;;;5121441;28;20648;-84
2023/01/22 11:48:42;;;;;;;53.80;29.30;;;7.60;99.90;;;;;;5113793;28;20620;-89
2023/01/22 11:51:17;;;;;;;55.90;33.75;;;7.50;99.90;;;;;;5113511;28;20582;-89
2023/01/22 11:54:04;;;;;;;49.08;31.23;;;7.50;99.90;;;;;;5113446;28;20198;-83
2023/01/22 11:56:47;;;;;;;48.60;28.50;;;7.60;99.90;;;;;;5114386;28;20216;-84
2023/01/22 11:59:35;;;;;;;52.17;29.17;;;7.60;99.90;;;;;;5114991;28;20625;-90
2023/01/22 12:02:04;;;;;;;49.67;30.35;;;7.70;99.90;;;;;;5114554;28;20163;-84
2023/01/22 12:05:10;;;;;;;56.53;33.17;;;7.70;99.90;;;;;;5113413;28;20172;-89
2023/01/22 12:07:54;;;;;;;56.88;31.88;;;7.60;99.90;;;;;;5114262;28;20571;-89
2023/01/22 12:10:38;;;;;;;59.05;33.40;;;7.70;99.90;;;;;;5113920;28;20583;-83
2023/01/22 12:13:12;;;;;;;66.57;37.85;;;7.70;99.90;;;;;;5113322;28;20210;-87
2023/01/22 12:15:38;;;;;;;64.13;37.58;;;7.70;99.90;;;;;;5112493;28;20260;-88
2023/01/22 12:18:06;;;;;;;47.00;26.40;;;7.70;99.90;;;;;;5115436;28;20200;-84
2023/01/22 12:21:06;;;;;;;54.63;32.60;;;7.60;99.90;;;;;;5115029;28;20267;-83
2023/01/22 12:23:48;;;;;;;64.57;36.00;;;7.70;99.90;;;;;;5103913;28;20203;-89
2023/01/22 12:26:19;;;;;;;56.20;33.10;;;7.70;99.90;;;;;;5115781;28;20321;-89
2023/01/22 12:28:58;;;;;;;53.10;31.00;;;7.70;99.90;;;;;;5116356;28;20252;-83
2023/01/22 12:31:42;;;;;;;50.85;30.30;;;7.70;99.90;;;;;;5118708;28;20199;-89
2023/01/22 12:34:21;;;;;;;62.47;33.75;;;7.80;99.90;;;;;;5118789;28;20187;-83
2023/01/22 12:36:48;;;;;;;57.85;33.67;;;7.60;99.90;;;;;;5117090;28;20311;-82
2023/01/22 12:39:21;;;;;;;53.80;31.75;;;7.40;99.90;;;;;;5119102;28;20213;-89
2023/01/22 12:42:08;;;;;;;59.05;29.30;;;7.30;99.90;;;;;;5117137;28;20314;-83
2023/01/22 12:44:39;;;;;;;54.50;32.28;;;7.30;99.90;;;;;;5118687;28;20168;-81
2023/01/22 12:47:20;;;;;;;53.35;29.80;;;7.30;99.90;;;;;;5118143;28;20746;-83
2023/01/22 12:49:49;;;;;;;56.00;31.75;;;7.40;99.90;;;;;;5117062;28;20244;-89
2023/01/22 12:52:36;;;;;;;52.28;28.90;;;7.50;99.90;;;;;;5116683;28;20216;-89
2023/01/22 12:55:20;;;;;;;65.28;35.05;;;7.40;99.90;;;;;;5118058;28;20168;-89